createdAt,value
2018-09-30T00:00:14.052Z,1001.4
2018-09-30T00:01:14.718Z,1001.4
2018-09-30T00:02:15.383Z,1001.4
2018-09-30T00:03:16.049Z,1001.4
2018-09-30T00:04:16.750Z,1001.4
2018-09-30T00:05:17.433Z,1001.4
2018-09-30T00:06:18.136Z,1001.4
2018-09-30T00:07:18.802Z,1001.3
2018-09-30T00:08:19.467Z,1001.3
2018-09-30T00:09:20.134Z,1001.3
2018-09-30T00:10:20.800Z,1001.3
2018-09-30T00:11:21.467Z,1001.3
2018-09-30T00:12:22.177Z,1001.3
2018-09-30T00:13:22.844Z,1001.3
2018-09-30T00:14:23.514Z,1001.3
2018-09-30T00:15:24.220Z,1001.3
2018-09-30T00:16:24.886Z,1001.4
2018-09-30T00:17:25.594Z,1001.3
2018-09-30T00:18:26.262Z,1001.3
2018-09-30T00:19:26.966Z,1001.3
2018-09-30T00:20:27.593Z,1001.3
2018-09-30T00:21:28.261Z,1001.3
2018-09-30T00:22:28.931Z,1001.3
2018-09-30T00:23:29.597Z,1001.3
2018-09-30T00:24:30.263Z,1001.3
2018-09-30T00:25:30.972Z,1001.3
2018-09-30T00:26:31.638Z,1001.3
2018-09-30T00:27:32.306Z,1001.3
2018-09-30T00:28:32.971Z,1001.3
2018-09-30T00:29:33.638Z,1001.3
2018-09-30T00:30:34.305Z,1001.3
2018-09-30T00:31:34.970Z,1001.3
2018-09-30T00:32:35.637Z,1001.3
2018-09-30T00:33:36.303Z,1001.3
2018-09-30T00:34:36.969Z,1001.3
2018-09-30T00:35:37.638Z,1001.3
2018-09-30T00:36:38.302Z,1001.3
2018-09-30T00:37:39.009Z,1001.2
2018-09-30T00:38:39.674Z,1001.2
2018-09-30T00:39:40.341Z,1001.3
2018-09-30T00:40:41.008Z,1001.2
2018-09-30T00:41:41.673Z,1001.2
2018-09-30T00:42:42.339Z,1001.2
2018-09-30T00:43:43.027Z,1001.2
2018-09-30T00:44:43.716Z,1001.1
2018-09-30T00:45:44.383Z,1001.1
2018-09-30T00:46:45.054Z,1001.1
2018-09-30T00:47:45.715Z,1001.1
2018-09-30T00:48:46.381Z,1001.1
2018-09-30T00:49:47.046Z,1001.1
2018-09-30T00:50:47.711Z,1001.1
2018-09-30T00:51:48.377Z,1001.1
2018-09-30T00:52:49.050Z,1001.1
2018-09-30T00:53:49.709Z,1001.1
2018-09-30T00:54:50.377Z,1001.1
2018-09-30T00:55:51.043Z,1001.1
2018-09-30T00:56:51.709Z,1001.0
2018-09-30T00:57:52.377Z,1001.0
2018-09-30T00:58:53.085Z,1001.0
2018-09-30T00:59:53.751Z,1001.0
2018-09-30T01:00:54.417Z,1001.0
2018-09-30T01:01:55.083Z,1001.0
2018-09-30T01:02:55.749Z,1001.0
2018-09-30T01:03:56.417Z,1001.0
2018-09-30T01:04:57.083Z,1001.0
2018-09-30T01:05:57.749Z,1001.0
2018-09-30T01:06:58.415Z,1000.9
2018-09-30T01:07:59.082Z,1000.9
2018-09-30T01:08:59.748Z,1000.9
2018-09-30T01:10:00.416Z,1000.9
2018-09-30T01:11:01.084Z,1000.8
2018-09-30T01:12:01.753Z,1000.8
2018-09-30T01:13:02.459Z,1000.8
2018-09-30T01:14:03.125Z,1000.8
2018-09-30T01:15:03.790Z,1000.8
2018-09-30T01:16:04.458Z,1000.8
2018-09-30T01:17:05.167Z,1000.7
2018-09-30T01:18:05.833Z,1000.8
2018-09-30T01:19:06.499Z,1000.8
2018-09-30T01:20:07.207Z,1000.8
2018-09-30T01:21:07.872Z,1000.8
2018-09-30T01:22:08.539Z,1000.7
2018-09-30T01:23:09.207Z,1000.8
2018-09-30T01:24:09.875Z,1000.7
2018-09-30T01:25:10.539Z,1000.7
2018-09-30T01:26:11.204Z,1000.7
2018-09-30T01:27:11.869Z,1000.7
2018-09-30T01:28:12.538Z,1000.8
2018-09-30T01:29:13.203Z,1000.7
2018-09-30T01:30:13.871Z,1000.8
2018-09-30T01:31:14.537Z,1000.8
2018-09-30T01:32:15.203Z,1000.8
2018-09-30T01:33:15.911Z,1000.8
2018-09-30T01:34:16.589Z,1000.8
2018-09-30T01:35:17.287Z,1000.7
2018-09-30T01:36:17.953Z,1000.7
2018-09-30T01:37:18.620Z,1000.7
2018-09-30T01:38:19.287Z,1000.7
2018-09-30T01:39:19.953Z,1000.7
2018-09-30T01:40:20.622Z,1000.6
2018-09-30T01:41:21.287Z,1000.6
2018-09-30T01:42:21.952Z,1000.7
2018-09-30T01:43:22.618Z,1000.6
2018-09-30T01:44:23.283Z,1000.6
2018-09-30T01:45:23.949Z,1000.7
2018-09-30T01:46:24.616Z,1000.6
2018-09-30T01:47:25.281Z,1000.6
2018-09-30T01:48:25.948Z,1000.6
2018-09-30T01:49:26.615Z,1000.5
2018-09-30T01:50:27.279Z,1000.5
2018-09-30T01:51:27.945Z,1000.5
2018-09-30T01:52:28.612Z,1000.4
2018-09-30T01:53:29.278Z,1000.5
2018-09-30T01:54:29.948Z,1000.4
2018-09-30T01:55:30.611Z,1000.4
2018-09-30T01:56:31.276Z,1000.4
2018-09-30T01:57:31.942Z,1000.4
2018-09-30T01:58:32.609Z,1000.4
2018-09-30T01:59:33.279Z,1000.4
2018-09-30T02:00:33.940Z,1000.4
2018-09-30T02:01:34.607Z,1000.4
2018-09-30T02:02:35.273Z,1000.4
2018-09-30T02:03:35.939Z,1000.4
2018-09-30T02:04:36.612Z,1000.4
2018-09-30T02:05:37.273Z,1000.4
2018-09-30T02:06:37.939Z,1000.5
2018-09-30T02:07:38.606Z,1000.4
2018-09-30T02:08:39.272Z,1000.4
2018-09-30T02:09:39.937Z,1000.4
2018-09-30T02:10:40.605Z,1000.4
2018-09-30T02:11:41.270Z,1000.4
2018-09-30T02:12:41.937Z,1000.4
2018-09-30T02:13:42.601Z,1000.3
2018-09-30T02:14:43.265Z,1000.3
2018-09-30T02:15:43.934Z,1000.3
2018-09-30T02:16:44.601Z,1000.3
2018-09-30T02:17:45.266Z,1000.3
2018-09-30T02:18:45.934Z,1000.3
2018-09-30T02:19:46.598Z,1000.3
2018-09-30T02:20:47.264Z,1000.3
2018-09-30T02:21:47.929Z,1000.3
2018-09-30T02:22:48.598Z,1000.3
2018-09-30T02:23:49.305Z,1000.3
2018-09-30T02:24:49.972Z,1000.3
2018-09-30T02:25:50.636Z,1000.3
2018-09-30T02:26:51.302Z,1000.3
2018-09-30T02:27:51.967Z,1000.3
2018-09-30T02:28:52.635Z,1000.2
2018-09-30T02:29:53.300Z,1000.2
2018-09-30T02:30:54.009Z,1000.2
2018-09-30T02:31:54.715Z,1000.2
2018-09-30T02:32:55.383Z,1000.2
2018-09-30T02:33:56.047Z,1000.2
2018-09-30T02:34:56.713Z,1000.1
2018-09-30T02:35:57.379Z,1000.2
2018-09-30T02:36:58.045Z,1000.2
2018-09-30T02:37:58.711Z,1000.1
2018-09-30T02:38:59.376Z,1000.1
2018-09-30T02:40:00.040Z,1000.1
2018-09-30T02:41:00.707Z,1000.1
2018-09-30T02:42:01.374Z,1000.0
2018-09-30T02:43:02.039Z,1000.0
2018-09-30T02:44:02.747Z,999.9
2018-09-30T02:45:03.412Z,999.9
2018-09-30T02:46:04.076Z,999.9
2018-09-30T02:47:04.741Z,999.9
2018-09-30T02:48:05.413Z,999.9
2018-09-30T02:49:06.076Z,999.9
2018-09-30T02:50:06.738Z,999.9
2018-09-30T02:51:07.402Z,999.9
2018-09-30T02:52:08.065Z,999.9
2018-09-30T02:53:08.730Z,999.9
2018-09-30T02:54:09.393Z,999.9
2018-09-30T02:55:10.058Z,999.9
2018-09-30T02:56:10.724Z,999.9
2018-09-30T02:57:11.389Z,999.8
2018-09-30T02:58:12.053Z,999.8
2018-09-30T02:59:12.719Z,999.8
2018-09-30T03:00:13.384Z,999.8
2018-09-30T03:01:14.046Z,999.8
2018-09-30T03:02:14.711Z,999.8
2018-09-30T03:03:15.376Z,999.8
2018-09-30T03:04:16.040Z,999.8
2018-09-30T03:05:16.708Z,999.8
2018-09-30T03:06:17.371Z,999.7
2018-09-30T03:07:18.034Z,999.7
2018-09-30T03:08:18.698Z,999.7
2018-09-30T03:09:19.365Z,999.7
2018-09-30T03:10:20.030Z,999.7
2018-09-30T03:11:20.737Z,999.6
2018-09-30T03:12:21.401Z,999.6
2018-09-30T03:13:22.067Z,999.6
2018-09-30T03:14:22.733Z,999.6
2018-09-30T03:15:23.438Z,999.6
2018-09-30T03:16:24.147Z,999.6
2018-09-30T03:17:24.812Z,999.6
2018-09-30T03:18:25.474Z,999.6
2018-09-30T03:19:26.140Z,999.6
2018-09-30T03:20:26.806Z,999.6
2018-09-30T03:21:27.470Z,999.5
2018-09-30T03:22:28.133Z,999.6
2018-09-30T03:23:28.800Z,999.5
2018-09-30T03:24:29.465Z,999.5
2018-09-30T03:25:30.129Z,999.5
2018-09-30T03:26:30.793Z,999.4
2018-09-30T03:27:31.461Z,999.5
2018-09-30T03:28:32.123Z,999.4
2018-09-30T03:29:32.796Z,999.4
2018-09-30T03:30:33.494Z,999.5
2018-09-30T03:31:34.160Z,999.4
2018-09-30T03:32:34.823Z,999.4
2018-09-30T03:33:35.489Z,999.4
2018-09-30T03:34:36.155Z,999.4
2018-09-30T03:35:36.817Z,999.4
2018-09-30T03:36:37.480Z,999.4
2018-09-30T03:37:38.146Z,999.3
2018-09-30T03:38:38.814Z,999.3
2018-09-30T03:39:39.484Z,999.3
2018-09-30T03:40:40.141Z,999.3
2018-09-30T03:41:40.803Z,999.3
2018-09-30T03:42:41.466Z,999.3
2018-09-30T03:43:42.130Z,999.2
2018-09-30T03:44:42.794Z,999.2
2018-09-30T03:45:43.461Z,999.2
2018-09-30T03:46:44.125Z,999.2
2018-09-30T03:47:44.789Z,999.2
2018-09-30T03:48:45.453Z,999.2
2018-09-30T03:49:46.117Z,999.2
2018-09-30T03:50:46.780Z,999.2
2018-09-30T03:51:47.446Z,999.2
2018-09-30T03:52:48.113Z,999.2
2018-09-30T03:53:48.778Z,999.2
2018-09-30T03:54:49.441Z,999.2
2018-09-30T03:55:50.106Z,999.2
2018-09-30T03:56:50.851Z,999.1
2018-09-30T03:57:51.434Z,999.2
2018-09-30T03:58:52.097Z,999.2
2018-09-30T03:59:52.764Z,999.2
2018-09-30T04:00:53.429Z,999.1
2018-09-30T04:01:54.092Z,999.1
2018-09-30T04:02:54.758Z,999.1
2018-09-30T04:03:55.424Z,999.1
2018-09-30T04:04:56.088Z,999.1
2018-09-30T04:05:56.754Z,999.1
2018-09-30T04:06:57.422Z,999.1
2018-09-30T04:07:58.124Z,999.0
2018-09-30T04:08:58.787Z,999.0
2018-09-30T04:09:59.458Z,999.0
2018-09-30T04:11:00.128Z,999.0
2018-09-30T04:12:00.781Z,999.0
2018-09-30T04:13:01.444Z,999.0
2018-09-30T04:14:02.109Z,998.9
2018-09-30T04:15:02.775Z,999.0
2018-09-30T04:16:03.442Z,999.0
2018-09-30T04:17:04.152Z,998.9
2018-09-30T04:18:04.770Z,998.9
2018-09-30T04:19:05.432Z,998.9
2018-09-30T04:20:06.096Z,998.9
2018-09-30T04:21:06.762Z,998.9
2018-09-30T04:22:07.428Z,998.9
2018-09-30T04:23:08.091Z,998.9
2018-09-30T04:24:08.756Z,998.9
2018-09-30T04:25:09.421Z,998.8
2018-09-30T04:26:10.086Z,998.9
2018-09-30T04:27:10.748Z,998.8
2018-09-30T04:28:11.414Z,998.8
2018-09-30T04:29:12.078Z,998.8
2018-09-30T04:30:12.740Z,998.8
2018-09-30T04:31:13.404Z,998.9
2018-09-30T04:32:14.071Z,998.9
2018-09-30T04:33:14.781Z,998.9
2018-09-30T04:34:15.397Z,998.8
2018-09-30T04:35:16.063Z,998.8
2018-09-30T04:36:16.728Z,998.9
2018-09-30T04:37:17.391Z,998.9
2018-09-30T04:38:18.056Z,998.9
2018-09-30T04:39:18.719Z,998.8
2018-09-30T04:40:19.382Z,998.9
2018-09-30T04:41:20.046Z,998.9
2018-09-30T04:42:20.717Z,998.9
2018-09-30T04:43:21.380Z,998.9
2018-09-30T04:44:22.040Z,998.9
2018-09-30T04:45:22.705Z,998.9
2018-09-30T04:46:23.369Z,999.0
2018-09-30T04:47:24.030Z,998.9
2018-09-30T04:48:24.698Z,998.9
2018-09-30T04:49:25.361Z,998.9
2018-09-30T04:50:26.025Z,998.9
2018-09-30T04:51:26.689Z,998.9
2018-09-30T04:52:27.354Z,998.9
2018-09-30T04:53:28.019Z,998.9
2018-09-30T04:54:28.684Z,998.9
2018-09-30T04:55:29.352Z,998.8
2018-09-30T04:56:30.060Z,998.9
2018-09-30T04:57:30.725Z,998.8
2018-09-30T04:58:31.389Z,998.8
2018-09-30T04:59:32.055Z,998.8
2018-09-30T05:00:32.717Z,998.8
2018-09-30T05:01:33.383Z,998.8
2018-09-30T05:02:34.050Z,998.7
2018-09-30T05:03:34.713Z,998.8
2018-09-30T05:04:35.421Z,998.8
2018-09-30T05:05:36.109Z,998.8
2018-09-30T05:06:36.752Z,998.8
2018-09-30T05:07:37.459Z,998.9
2018-09-30T05:08:38.124Z,998.9
2018-09-30T05:09:38.791Z,998.9
2018-09-30T05:10:39.458Z,998.9
2018-09-30T05:11:40.123Z,998.9
2018-09-30T05:12:40.788Z,998.9
2018-09-30T05:13:41.452Z,998.9
2018-09-30T05:14:42.120Z,998.9
2018-09-30T05:15:42.791Z,998.9
2018-09-30T05:16:43.496Z,998.9
2018-09-30T05:17:44.170Z,998.9
2018-09-30T05:18:44.920Z,998.9
2018-09-30T05:19:45.589Z,998.9
2018-09-30T05:20:46.254Z,998.9
2018-09-30T05:21:46.921Z,999.0
2018-09-30T05:22:47.586Z,999.0
2018-09-30T05:23:48.255Z,999.0
2018-09-30T05:24:48.920Z,999.0
2018-09-30T05:25:49.660Z,999.0
2018-09-30T05:26:50.254Z,999.0
2018-09-30T05:27:50.961Z,999.0
2018-09-30T05:28:51.627Z,999.0
2018-09-30T05:29:52.295Z,999.0
2018-09-30T05:30:52.963Z,999.0
2018-09-30T05:31:53.638Z,999.0
2018-09-30T05:32:54.340Z,999.0
2018-09-30T05:33:55.007Z,999.0
2018-09-30T05:34:55.678Z,999.0
2018-09-30T05:35:56.345Z,998.9
2018-09-30T05:36:57.012Z,999.0
2018-09-30T05:37:57.678Z,998.9
2018-09-30T05:38:58.347Z,998.9
2018-09-30T05:39:59.013Z,998.9
2018-09-30T05:40:59.681Z,998.9
2018-09-30T05:42:00.349Z,998.9
2018-09-30T05:43:01.017Z,998.9
2018-09-30T05:44:01.685Z,998.9
2018-09-30T05:45:02.353Z,998.9
2018-09-30T05:46:03.019Z,999.0
2018-09-30T05:47:03.686Z,998.9
2018-09-30T05:48:04.354Z,999.0
2018-09-30T05:49:05.105Z,998.9
2018-09-30T05:50:05.689Z,999.0
2018-09-30T05:51:06.356Z,999.0
2018-09-30T05:52:07.023Z,999.0
2018-09-30T05:53:07.692Z,998.9
2018-09-30T05:54:08.360Z,998.9
2018-09-30T05:55:09.026Z,998.9
2018-09-30T05:56:09.694Z,998.9
2018-09-30T05:57:10.361Z,998.8
2018-09-30T05:58:11.030Z,998.8
2018-09-30T05:59:11.696Z,998.8
2018-09-30T06:00:12.364Z,998.9
2018-09-30T06:01:13.032Z,998.8
2018-09-30T06:02:13.705Z,998.8
2018-09-30T06:03:14.372Z,998.8
2018-09-30T06:04:15.040Z,998.9
2018-09-30T06:05:15.757Z,998.8
2018-09-30T06:06:16.468Z,998.9
2018-09-30T06:07:17.137Z,998.8
2018-09-30T06:08:17.805Z,998.8
2018-09-30T06:09:18.488Z,998.8
2018-09-30T06:10:19.194Z,998.8
2018-09-30T06:11:19.899Z,998.8
2018-09-30T06:12:20.609Z,998.7
2018-09-30T06:13:21.277Z,998.8
2018-09-30T06:14:21.990Z,998.8
2018-09-30T06:15:22.614Z,998.8
2018-09-30T06:16:23.288Z,998.8
2018-09-30T06:17:23.994Z,998.8
2018-09-30T06:18:24.663Z,998.9
2018-09-30T06:19:25.332Z,998.9
2018-09-30T06:20:26.003Z,998.9
2018-09-30T06:21:26.669Z,998.9
2018-09-30T06:22:27.338Z,998.9
2018-09-30T06:23:28.006Z,998.9
2018-09-30T06:24:28.674Z,998.9
2018-09-30T06:25:29.342Z,998.9
2018-09-30T06:26:30.012Z,999.0
2018-09-30T06:27:30.679Z,998.9
2018-09-30T06:28:31.395Z,999.0
2018-09-30T06:29:32.015Z,998.9
2018-09-30T06:30:33.031Z,998.9
2018-09-30T06:31:33.679Z,998.9
2018-09-30T06:32:34.341Z,998.9
2018-09-30T06:33:35.007Z,998.9
2018-09-30T06:34:35.676Z,998.9
2018-09-30T06:35:36.345Z,998.8
2018-09-30T06:36:37.013Z,998.8
2018-09-30T06:37:37.684Z,998.8
2018-09-30T06:38:38.392Z,998.8
2018-09-30T06:39:39.022Z,998.8
2018-09-30T06:40:39.689Z,998.8
2018-09-30T06:41:40.362Z,998.8
2018-09-30T06:42:41.071Z,998.8
2018-09-30T06:43:41.744Z,998.8
2018-09-30T06:44:42.411Z,998.8
2018-09-30T06:45:43.080Z,998.9
2018-09-30T06:46:43.748Z,998.9
2018-09-30T06:47:44.417Z,998.9
2018-09-30T06:48:45.085Z,998.9
2018-09-30T06:49:45.754Z,998.9
2018-09-30T06:50:46.440Z,998.9
2018-09-30T06:51:47.110Z,998.9
2018-09-30T06:52:47.807Z,998.9
2018-09-30T06:53:48.471Z,998.9
2018-09-30T06:54:49.140Z,998.9
2018-09-30T06:55:49.812Z,998.9
2018-09-30T06:56:50.521Z,998.9
2018-09-30T06:57:51.190Z,998.9
2018-09-30T06:58:51.860Z,998.9
2018-09-30T06:59:52.530Z,998.9
2018-09-30T07:00:53.197Z,999.0
2018-09-30T07:01:53.868Z,999.0
2018-09-30T07:02:54.537Z,999.0
2018-09-30T07:03:55.207Z,999.0
2018-09-30T07:04:55.945Z,999.1
2018-09-30T07:05:56.544Z,999.1
2018-09-30T07:06:57.257Z,999.0
2018-09-30T07:07:57.925Z,999.0
2018-09-30T07:08:58.596Z,999.1
2018-09-30T07:09:59.264Z,999.1
2018-09-30T07:11:00.000Z,999.0
2018-09-30T07:12:00.602Z,999.0
2018-09-30T07:13:01.324Z,999.0
2018-09-30T07:14:01.993Z,999.0
2018-09-30T07:15:02.663Z,999.0
2018-09-30T07:16:03.335Z,999.0
2018-09-30T07:17:04.061Z,999.0
2018-09-30T07:18:04.755Z,999.0
2018-09-30T07:19:05.426Z,999.0
2018-09-30T07:20:06.095Z,999.0
2018-09-30T07:21:06.764Z,999.0
2018-09-30T07:22:07.477Z,999.0
2018-09-30T07:23:08.137Z,999.0
2018-09-30T07:24:08.815Z,999.0
2018-09-30T07:25:09.485Z,998.9
2018-09-30T07:26:10.152Z,999.0
2018-09-30T07:27:10.868Z,999.0
2018-09-30T07:28:11.537Z,999.0
2018-09-30T07:29:12.207Z,999.0
2018-09-30T07:30:12.875Z,998.9
2018-09-30T07:31:13.547Z,998.9
2018-09-30T07:32:14.214Z,998.9
2018-09-30T07:33:14.889Z,998.9
2018-09-30T07:34:15.558Z,998.9
2018-09-30T07:35:16.228Z,998.9
2018-09-30T07:36:16.912Z,998.9
2018-09-30T07:37:17.610Z,998.9
2018-09-30T07:38:18.285Z,998.8
2018-09-30T07:39:19.065Z,998.8
2018-09-30T07:40:19.667Z,998.9
2018-09-30T07:41:20.378Z,998.9
2018-09-30T07:42:21.052Z,998.8
2018-09-30T07:43:21.719Z,998.9
2018-09-30T07:44:22.393Z,998.8
2018-09-30T07:45:23.059Z,998.8
2018-09-30T07:46:23.728Z,998.8
2018-09-30T07:47:24.401Z,998.8
2018-09-30T07:48:25.073Z,998.8
2018-09-30T07:49:25.786Z,998.8
2018-09-30T07:50:26.502Z,998.8
2018-09-30T07:51:27.131Z,998.8
2018-09-30T07:52:27.823Z,998.8
2018-09-30T07:53:28.473Z,998.8
2018-09-30T07:54:29.146Z,998.8
2018-09-30T07:55:29.820Z,998.8
2018-09-30T07:56:30.488Z,998.7
2018-09-30T07:57:31.166Z,998.7
2018-09-30T07:58:31.832Z,998.6
2018-09-30T07:59:32.505Z,998.6
2018-09-30T08:00:33.178Z,998.6
2018-09-30T08:01:33.853Z,998.6
2018-09-30T08:02:34.525Z,998.6
2018-09-30T08:03:35.199Z,998.6
2018-09-30T08:04:35.910Z,998.6
2018-09-30T08:05:36.587Z,998.6
2018-09-30T08:06:37.262Z,998.5
2018-09-30T08:07:37.939Z,998.5
2018-09-30T08:08:38.610Z,998.5
2018-09-30T08:09:39.285Z,998.5
2018-09-30T08:10:39.959Z,998.5
2018-09-30T08:11:40.634Z,998.5
2018-09-30T08:12:41.324Z,998.6
2018-09-30T08:13:42.025Z,998.6
2018-09-30T08:14:42.698Z,998.5
2018-09-30T08:15:43.372Z,998.5
2018-09-30T08:16:44.105Z,998.5
2018-09-30T08:17:44.720Z,998.4
2018-09-30T08:18:45.396Z,998.4
2018-09-30T08:19:46.082Z,998.4
2018-09-30T08:20:46.787Z,998.4
2018-09-30T08:21:47.463Z,998.3
2018-09-30T08:22:48.137Z,998.3
2018-09-30T08:23:48.814Z,998.3
2018-09-30T08:24:49.490Z,998.3
2018-09-30T08:25:50.164Z,998.2
2018-09-30T08:26:50.840Z,998.2
2018-09-30T08:27:51.545Z,998.2
2018-09-30T08:28:52.235Z,998.2
2018-09-30T08:29:52.910Z,998.2
2018-09-30T08:30:53.651Z,998.1
2018-09-30T08:31:54.260Z,998.1
2018-09-30T08:32:54.980Z,998.1
2018-09-30T08:33:55.656Z,998.1
2018-09-30T08:34:56.333Z,998.0
2018-09-30T08:35:57.012Z,998.1
2018-09-30T08:36:57.686Z,998.1
2018-09-30T08:37:58.361Z,998.1
2018-09-30T08:38:59.081Z,998.0
2018-09-30T08:39:59.838Z,998.0
2018-09-30T08:41:00.466Z,998.0
2018-09-30T08:42:01.142Z,998.0
2018-09-30T08:43:01.819Z,998.0
2018-09-30T08:44:02.602Z,998.0
2018-09-30T08:45:03.228Z,998.0
2018-09-30T08:46:03.947Z,998.0
2018-09-30T08:47:04.656Z,998.0
2018-09-30T08:48:05.302Z,997.9
2018-09-30T08:49:05.981Z,998.0
2018-09-30T08:50:06.659Z,998.0
2018-09-30T08:51:07.334Z,997.9
2018-09-30T08:52:08.013Z,998.0
2018-09-30T08:53:08.692Z,998.0
2018-09-30T08:54:09.370Z,998.0
2018-09-30T08:55:10.090Z,997.9
2018-09-30T08:56:10.802Z,997.9
2018-09-30T08:57:11.450Z,997.9
2018-09-30T08:58:12.125Z,997.9
2018-09-30T08:59:12.803Z,997.8
2018-09-30T09:00:13.483Z,997.8
2018-09-30T09:01:14.160Z,997.9
2018-09-30T09:02:14.841Z,997.8
2018-09-30T09:03:15.520Z,997.8
2018-09-30T09:04:16.255Z,997.8
2018-09-30T09:05:16.962Z,997.8
2018-09-30T09:06:17.639Z,997.9
2018-09-30T09:07:18.320Z,997.9
2018-09-30T09:08:19.019Z,997.9
2018-09-30T09:09:19.729Z,997.9
2018-09-30T09:10:20.397Z,997.8
2018-09-30T09:11:21.076Z,997.9
2018-09-30T09:12:21.756Z,997.8
2018-09-30T09:13:22.433Z,997.8
2018-09-30T09:14:23.115Z,997.8
2018-09-30T09:15:23.855Z,997.8
2018-09-30T09:16:24.508Z,997.8
2018-09-30T09:17:25.214Z,997.9
2018-09-30T09:18:25.908Z,997.8
2018-09-30T09:19:26.588Z,997.8
2018-09-30T09:20:27.264Z,997.8
2018-09-30T09:21:27.947Z,997.8
2018-09-30T09:22:28.715Z,997.8
2018-09-30T09:23:29.306Z,997.8
2018-09-30T09:24:30.025Z,997.8
2018-09-30T09:25:30.705Z,997.8
2018-09-30T09:26:31.384Z,997.8
2018-09-30T09:27:32.089Z,997.8
2018-09-30T09:28:32.787Z,997.8
2018-09-30T09:29:33.465Z,997.8
2018-09-30T09:30:34.144Z,997.8
2018-09-30T09:31:34.909Z,997.8
2018-09-30T09:32:35.553Z,997.7
2018-09-30T09:33:36.232Z,997.7
2018-09-30T09:34:36.912Z,997.7
2018-09-30T09:35:37.592Z,997.7
2018-09-30T09:36:38.272Z,997.7
2018-09-30T09:37:38.960Z,997.7
2018-09-30T09:38:39.671Z,997.7
2018-09-30T09:39:40.352Z,997.7
2018-09-30T09:40:41.035Z,997.7
2018-09-30T09:41:41.714Z,997.7
2018-09-30T09:42:42.393Z,997.6
2018-09-30T09:43:43.078Z,997.6
2018-09-30T09:44:43.794Z,997.6
2018-09-30T09:45:44.474Z,997.6
2018-09-30T09:46:45.152Z,997.7
2018-09-30T09:47:45.832Z,997.6
2018-09-30T09:48:46.509Z,997.6
2018-09-30T09:49:47.189Z,997.6
2018-09-30T09:50:47.867Z,997.6
2018-09-30T09:51:48.547Z,997.7
2018-09-30T09:52:49.234Z,997.6
2018-09-30T09:53:49.913Z,997.6
2018-09-30T09:54:50.591Z,997.7
2018-09-30T09:55:51.271Z,997.6
2018-09-30T09:56:51.948Z,997.6
2018-09-30T09:57:52.628Z,997.6
2018-09-30T09:58:53.317Z,997.6
2018-09-30T09:59:54.028Z,997.6
2018-09-30T10:00:54.705Z,997.6
2018-09-30T10:01:55.386Z,997.6
2018-09-30T10:02:56.064Z,997.5
2018-09-30T10:03:56.746Z,997.5
2018-09-30T10:04:57.427Z,997.5
2018-09-30T10:05:58.139Z,997.5
2018-09-30T10:06:58.814Z,997.5
2018-09-30T10:07:59.493Z,997.5
2018-09-30T10:09:00.171Z,997.4
2018-09-30T10:10:00.849Z,997.4
2018-09-30T10:11:01.527Z,997.4
2018-09-30T10:12:02.207Z,997.4
2018-09-30T10:13:02.948Z,997.4
2018-09-30T10:14:03.645Z,997.4
2018-09-30T10:15:04.323Z,997.4
2018-09-30T10:16:05.001Z,997.3
2018-09-30T10:17:05.681Z,997.3
2018-09-30T10:18:06.357Z,997.2
2018-09-30T10:19:07.037Z,997.3
2018-09-30T10:20:07.715Z,997.2
2018-09-30T10:21:08.392Z,997.2
2018-09-30T10:22:09.069Z,997.2
2018-09-30T10:23:09.746Z,997.2
2018-09-30T10:24:10.425Z,997.1
2018-09-30T10:25:11.133Z,997.1
2018-09-30T10:26:11.823Z,997.1
2018-09-30T10:27:12.542Z,997.1
2018-09-30T10:28:13.220Z,997.1
2018-09-30T10:29:13.899Z,997.0
2018-09-30T10:30:14.578Z,997.0
2018-09-30T10:31:15.253Z,997.0
2018-09-30T10:32:15.929Z,997.0
2018-09-30T10:33:16.608Z,997.0
2018-09-30T10:34:17.284Z,997.0
2018-09-30T10:35:17.961Z,997.0
2018-09-30T10:36:18.639Z,997.0
2018-09-30T10:37:19.358Z,997.0
2018-09-30T10:38:20.103Z,997.0
2018-09-30T10:39:20.873Z,997.0
2018-09-30T10:40:21.390Z,997.0
2018-09-30T10:41:22.068Z,997.0
2018-09-30T10:42:22.745Z,997.0
2018-09-30T10:43:23.422Z,997.0
2018-09-30T10:44:24.100Z,996.9
2018-09-30T10:45:24.819Z,996.9
2018-09-30T10:46:25.498Z,996.9
2018-09-30T10:47:26.175Z,996.9
2018-09-30T10:48:26.962Z,996.8
2018-09-30T10:49:27.536Z,996.9
2018-09-30T10:50:28.249Z,996.9
2018-09-30T10:51:28.927Z,996.8
2018-09-30T10:52:29.603Z,996.8
2018-09-30T10:53:30.282Z,996.8
2018-09-30T10:54:30.960Z,996.7
2018-09-30T10:55:31.636Z,996.7
2018-09-30T10:56:32.313Z,996.7
2018-09-30T10:57:32.988Z,996.7
2018-09-30T10:58:33.665Z,996.7
2018-09-30T10:59:34.344Z,996.8
2018-09-30T11:00:35.022Z,996.8
2018-09-30T11:01:35.699Z,996.8
2018-09-30T11:02:36.375Z,996.7
2018-09-30T11:03:37.244Z,996.7
2018-09-30T11:04:37.728Z,996.7
2018-09-30T11:05:38.404Z,996.7
2018-09-30T11:06:39.081Z,996.7
2018-09-30T11:07:39.759Z,996.6
2018-09-30T11:08:40.432Z,996.6
2018-09-30T11:09:41.175Z,996.6
2018-09-30T11:10:41.782Z,996.5
2018-09-30T11:11:42.462Z,996.5
2018-09-30T11:12:43.136Z,996.5
2018-09-30T11:13:43.811Z,996.5
2018-09-30T11:14:44.488Z,996.4
2018-09-30T11:15:45.163Z,996.4
2018-09-30T11:16:45.882Z,996.4
2018-09-30T11:17:46.558Z,996.4
2018-09-30T11:18:47.234Z,996.4
2018-09-30T11:19:47.959Z,996.3
2018-09-30T11:20:48.679Z,996.3
2018-09-30T11:21:49.357Z,996.3
2018-09-30T11:22:50.032Z,996.3
2018-09-30T11:23:50.708Z,996.3
2018-09-30T11:24:51.384Z,996.2
2018-09-30T11:25:52.062Z,996.2
2018-09-30T11:26:52.738Z,996.2
2018-09-30T11:27:53.411Z,996.2
2018-09-30T11:28:54.089Z,996.2
2018-09-30T11:29:54.767Z,996.2
2018-09-30T11:30:55.443Z,996.2
2018-09-30T11:31:56.214Z,996.2
2018-09-30T11:32:56.800Z,996.1
2018-09-30T11:33:57.477Z,996.1
2018-09-30T11:34:58.152Z,996.1
2018-09-30T11:35:58.831Z,996.1
2018-09-30T11:36:59.508Z,996.0
2018-09-30T11:38:00.185Z,996.0
2018-09-30T11:39:00.863Z,996.0
2018-09-30T11:40:01.544Z,995.9
2018-09-30T11:41:02.221Z,995.9
2018-09-30T11:42:02.899Z,995.9
2018-09-30T11:43:03.619Z,995.9
2018-09-30T11:44:04.330Z,995.9
2018-09-30T11:45:05.060Z,995.9
2018-09-30T11:46:05.694Z,995.8
2018-09-30T11:47:06.373Z,995.8
2018-09-30T11:48:07.071Z,995.8
2018-09-30T11:49:07.768Z,995.8
2018-09-30T11:50:08.446Z,995.7
2018-09-30T11:51:09.127Z,995.7
2018-09-30T11:52:09.800Z,995.7
2018-09-30T11:53:10.479Z,995.6
2018-09-30T11:54:11.165Z,995.6
2018-09-30T11:55:11.877Z,995.6
2018-09-30T11:56:12.554Z,995.6
2018-09-30T11:57:13.231Z,995.6
2018-09-30T11:58:13.910Z,995.6
2018-09-30T11:59:14.588Z,995.5
2018-09-30T12:00:15.265Z,995.5
2018-09-30T12:01:16.012Z,995.6
2018-09-30T12:02:16.635Z,995.5
2018-09-30T12:03:17.333Z,995.5
2018-09-30T12:04:18.053Z,995.5
2018-09-30T12:05:18.732Z,995.4
2018-09-30T12:06:19.411Z,995.4
2018-09-30T12:07:20.092Z,995.4
2018-09-30T12:08:20.816Z,995.5
2018-09-30T12:09:21.494Z,995.5
2018-09-30T12:10:22.172Z,995.5
2018-09-30T12:11:22.850Z,995.4
2018-09-30T12:12:23.528Z,995.4
2018-09-30T12:13:24.256Z,995.4
2018-09-30T12:14:24.942Z,995.3
2018-09-30T12:15:25.652Z,995.3
2018-09-30T12:16:26.329Z,995.3
2018-09-30T12:17:27.008Z,995.2
2018-09-30T12:18:27.687Z,995.2
2018-09-30T12:19:28.376Z,995.2
2018-09-30T12:20:29.085Z,995.2
2018-09-30T12:21:29.761Z,995.2
2018-09-30T12:22:30.481Z,995.1
2018-09-30T12:23:31.158Z,995.1
2018-09-30T12:24:31.838Z,995.1
2018-09-30T12:25:32.547Z,995.1
2018-09-30T12:26:33.239Z,995.0
2018-09-30T12:27:33.916Z,995.1
2018-09-30T12:28:34.594Z,995.1
2018-09-30T12:29:35.317Z,995.0
2018-09-30T12:30:35.995Z,995.0
2018-09-30T12:31:36.715Z,995.0
2018-09-30T12:32:37.400Z,994.9
2018-09-30T12:33:38.073Z,994.9
2018-09-30T12:34:38.751Z,994.9
2018-09-30T12:35:39.432Z,994.9
2018-09-30T12:36:40.108Z,994.9
2018-09-30T12:37:40.786Z,994.8
2018-09-30T12:38:41.472Z,994.9
2018-09-30T12:39:42.142Z,994.8
2018-09-30T12:40:42.821Z,994.8
2018-09-30T12:41:43.517Z,994.8
2018-09-30T12:42:44.251Z,994.8
2018-09-30T12:43:44.942Z,994.7
2018-09-30T12:44:45.623Z,994.8
2018-09-30T12:45:46.300Z,994.7
2018-09-30T12:46:46.976Z,994.7
2018-09-30T12:47:47.655Z,994.7
2018-09-30T12:48:48.333Z,994.7
2018-09-30T12:49:49.011Z,994.7
2018-09-30T12:50:49.688Z,994.7
2018-09-30T12:51:50.392Z,994.7
2018-09-30T12:52:51.089Z,994.7
2018-09-30T12:53:51.767Z,994.7
2018-09-30T12:54:52.444Z,994.6
2018-09-30T12:55:53.168Z,994.6